createdAt,value
2022-09-11T09:26:49.773Z,22.94
2022-09-11T09:29:36.447Z,24.33
2022-09-11T09:32:23.369Z,25.43
2022-09-11T09:35:10.053Z,25.97
2022-09-11T09:37:56.814Z,25.66
2022-09-11T09:40:43.531Z,25.24
2022-09-11T09:43:26.609Z,24.94
2022-09-11T09:46:13.394Z,24.76
2022-09-11T09:49:00.143Z,24.60
2022-09-11T09:51:47.084Z,24.48
2022-09-11T09:54:33.750Z,24.37
2022-09-11T09:57:20.561Z,24.28
2022-09-11T10:00:07.231Z,24.19
2022-09-11T10:02:53.932Z,24.10
2022-09-11T10:05:40.694Z,24.02
2022-09-11T10:08:27.406Z,23.93
2022-09-11T10:11:14.122Z,23.85
2022-09-11T10:14:00.793Z,23.76
2022-09-11T10:16:47.558Z,23.66
2022-09-11T10:19:34.370Z,23.59
2022-09-11T10:22:21.307Z,23.53
2022-09-11T10:25:07.998Z,23.47
2022-09-11T10:27:54.727Z,23.40
2022-09-11T10:30:41.486Z,23.34
2022-09-11T10:33:28.192Z,23.29
2022-09-11T10:36:15.504Z,23.24
2022-09-11T10:39:02.173Z,23.20
2022-09-11T10:41:48.999Z,23.17
2022-09-11T10:44:35.682Z,23.14
2022-09-11T10:47:22.396Z,23.11
2022-09-11T10:50:09.067Z,23.10
2022-09-11T10:52:55.830Z,23.10
2022-09-11T10:55:42.559Z,23.10
2022-09-11T10:58:29.314Z,23.10
2022-09-11T11:01:16.096Z,23.10
2022-09-11T11:04:02.841Z,23.10
2022-09-11T11:06:49.535Z,23.39
2022-09-11T11:09:36.204Z,24.67
2022-09-11T11:12:22.854Z,25.58
2022-09-11T11:15:09.529Z,25.95
2022-09-11T11:17:56.219Z,25.64
2022-09-11T11:20:43.004Z,25.25
2022-09-11T11:23:29.748Z,24.96
2022-09-11T11:26:16.501Z,24.76
2022-09-11T11:29:03.152Z,24.60
2022-09-11T11:31:49.863Z,24.47
2022-09-11T11:34:36.634Z,24.34
2022-09-11T11:37:23.280Z,24.22
2022-09-11T11:40:10.024Z,24.13
2022-09-11T11:42:56.714Z,24.04
2022-09-11T11:45:43.740Z,23.96
2022-09-11T11:48:30.488Z,23.89
2022-09-11T11:51:17.209Z,23.83
2022-09-11T11:54:03.895Z,23.78
2022-09-11T11:56:50.709Z,23.75
2022-09-11T11:59:37.361Z,23.72
2022-09-11T12:02:24.032Z,23.70
2022-09-11T12:05:10.852Z,23.67
2022-09-11T12:07:57.491Z,23.63
2022-09-11T12:10:44.270Z,23.62
2022-09-11T12:13:30.938Z,23.59
2022-09-11T12:16:17.701Z,23.56
2022-09-11T12:19:04.503Z,23.54
2022-09-11T12:21:51.297Z,23.53
2022-09-11T12:24:37.951Z,23.53
2022-09-11T12:27:24.726Z,23.53
2022-09-11T12:30:11.446Z,23.53
2022-09-11T12:32:58.236Z,23.52
2022-09-11T12:35:44.959Z,23.52
2022-09-11T12:38:31.594Z,23.51
2022-09-11T12:41:18.261Z,23.50
2022-09-11T12:44:04.958Z,23.49
2022-09-11T12:46:52.123Z,23.49
2022-09-11T12:49:38.811Z,23.48
2022-09-11T12:52:25.755Z,23.47
2022-09-11T12:55:12.429Z,23.48
2022-09-11T12:57:59.129Z,23.49
2022-09-11T13:00:46.109Z,23.49
2022-09-11T13:03:32.792Z,23.48
2022-09-11T13:06:19.547Z,23.47
2022-09-11T13:09:06.191Z,23.46
2022-09-11T13:11:52.912Z,23.42
2022-09-11T13:14:39.575Z,23.37
2022-09-11T13:17:26.275Z,23.31
2022-09-11T13:20:12.942Z,23.24
2022-09-11T13:22:59.697Z,23.19
2022-09-11T13:25:46.365Z,23.13
2022-09-11T13:28:33.074Z,23.08
2022-09-11T13:31:19.815Z,23.04
2022-09-11T13:34:06.532Z,23.00
2022-09-11T13:36:56.485Z,22.97
2022-09-11T13:39:43.568Z,22.94
2022-09-11T13:42:30.285Z,22.92
2022-09-11T13:45:16.948Z,22.89
2022-09-11T13:48:03.598Z,22.87
